Antelope, Kansas
Current Conditions -  °F | °C
As of 4:35 AM on Thursday 18 Dec 2014 (Local Time) from KEWK Reporting Station
Overcast Overcast  
Wind Chill: 28°   Ceiling: 500
Heat Index: 28°   Visibility: 2.5mi
Dew Point: 23°   Wind: 0mph
Humidity: 80%   Direction: NA
Pressure: 30.14"   Gusts: NA
Location:  38.4689°N, 96.9315°W
Report Text: KEWK 181035Z AUTO 00000KT 2 1/2SM OVC005 M02/M05 A3014 RMK AO1
Loading
Personal Weather Stations






























Interactive Weather Map New forecast layout! Learn more

10-Day Weather Forecast

Advertisements
Track Severe Weather on mobile